This is the latest recevied weather packets stored in our database for station/object OE-11204. If no packets are shown the sender has not sent any weather packets the latest 10 day(s).
| Time | Temp. | Humidity | Pressure | Rain* | Wind** | Luminosity | Snow |
|---|---|---|---|---|---|---|---|
| 1787923515 | 30.56° C | 43% | 1008.9 hPa | 0 mm | - | 377 W/m² | - |
| 1787922686 | 30.56° C | 45% | 1009.1 hPa | 0 mm | - | 241 W/m² | - |
| 1787922314 | 30.56° C | 45% | 1009.2 hPa | 0 mm | - | 452 W/m² | - |
| 1787921715 | 30° C | 46% | 1009.5 hPa | 0 mm | - | 223 W/m² | - |
| 1787920887 | 30° C | 46% | 1009.5 hPa | 0 mm | - | 254 W/m² | - |
| 1787920515 | 30.56° C | 45% | 1009.6 hPa | 0 mm | - | 501 W/m² | - |
| 1787919915 | 29.44° C | 48% | 1009.8 hPa | 0 mm | - | 495 W/m² | - |
| 1787919087 | 29.44° C | 48% | 1010.1 hPa | 0 mm | - | 371 W/m² | - |
| 1787918714 | 28.89° C | 47% | 1010.1 hPa | 0 mm | - | 421 W/m² | - |
| 1787918114 | 28.89° C | 48% | 1010.2 hPa | 0 mm | - | 476 W/m² | - |
| 1787917287 | 29.44° C | 48% | 1010.1 hPa | 0 mm | - | 538 W/m² | - |
| 1787916915 | 28.33° C | 48% | 1010.4 hPa | 0 mm | - | 384 W/m² | - |
| 1787916315 | 28.89° C | 51% | 1010.4 hPa | 0 mm | - | 415 W/m² | - |
| 1787915487 | 28.33° C | 46% | 1010.9 hPa | 0 mm | - | 278 W/m² | - |
| 1787915115 | 28.89° C | 46% | 1011 hPa | 0 mm | - | 613 W/m² | - |
| 1787914515 | 28.89° C | 47% | 1011 hPa | 0 mm | - | 650 W/m² | - |
| 1787913688 | 28.33° C | 50% | 1011.1 hPa | 0 mm | - | 736 W/m² | - |
| 1787913315 | 28.33° C | 50% | 1011.3 hPa | 0 mm | - | 693 W/m² | - |
| 1787912715 | 28.33° C | 52% | 1011.5 hPa | 0 mm | - | 693 W/m² | - |
| 1787911888 | 27.78° C | 54% | 1011.8 hPa | 0 mm | - | 681 W/m² | - |
| 1787911515 | 27.78° C | 56% | 1012 hPa | 0 mm | - | 662 W/m² | - |
| 1787910914 | 27.22° C | 56% | 1012.6 hPa | 0 mm | - | 656 W/m² | - |
| 1787910088 | 26.11° C | 55% | 1013 hPa | 0 mm | - | 650 W/m² | - |
| 1787909715 | 25.56° C | 56% | 1013.3 hPa | 0 mm | - | 631 W/m² | - |
| 1787909115 | 25.56° C | 61% | 1013.6 hPa | 0 mm | - | 619 W/m² | - |
* Rain latest hour (hover to see other rain measurements)
** Current wind speed in m/s (hover to see current wind gust speed)